Time;durP1;ratioP1;P1;durP2;ratioP2;P2;SDS_P1;SDS_P2;PMS_P1;PMS_P2;Temp;Humidity;BMP_temperature;BMP_pressure;BME280_temperature;BME280_humidity;BME280_pressure;Samples;Min_cycle;Max_cycle;Signal;HPM_P1;HPM_P2
2024/01/22 00:02:03;;;;;;;11.70;5.20;;;;;;;4.63;100.00;100993.44;4924697;29;21137;-75
2024/01/22 00:04:40;;;;;;;12.98;5.57;;;;;;;4.63;100.00;101004.03;4907891;29;20035;-75
2024/01/22 00:07:14;;;;;;;13.30;5.57;;;;;;;4.63;100.00;100994.25;4939228;28;20062;-75
2024/01/22 00:09:44;;;;;;;12.02;5.20;;;;;;;4.59;100.00;100982.44;4939737;28;20047;-74
2024/01/22 00:12:13;;;;;;;11.15;5.25;;;;;;;4.54;100.00;100947.84;4924615;29;20039;-74
2024/01/22 00:14:38;;;;;;;10.77;5.13;;;;;;;4.49;100.00;100901.81;4907415;29;20047;-74
2024/01/22 00:17:04;;;;;;;8.93;4.85;;;;;;;4.41;100.00;100886.22;4922454;29;20043;-74
2024/01/22 00:19:30;;;;;;;12.57;5.88;;;;;;;4.35;100.00;100869.34;4925270;29;20166;-75
2024/01/22 00:21:56;;;;;;;10.80;4.68;;;;;;;4.31;100.00;100886.75;4941126;28;20023;-74
2024/01/22 00:24:21;;;;;;;12.13;5.65;;;;;;;4.24;100.00;100878.06;4924054;29;20055;-75
2024/01/22 00:26:47;;;;;;;13.40;5.25;;;;;;;4.18;100.00;100849.81;4931435;29;20043;-74
2024/01/22 00:29:13;;;;;;;12.60;5.40;;;;;;;4.18;100.00;100831.25;4941925;28;20047;-74
2024/01/22 00:31:38;;;;;;;10.82;5.55;;;;;;;4.14;100.00;100819.50;4940717;28;20621;-74
2024/01/22 00:34:04;;;;;;;11.20;5.50;;;;;;;4.08;100.00;100803.44;4937301;28;20067;-75
2024/01/22 00:36:30;;;;;;;14.80;5.95;;;;;;;4.06;100.00;100786.97;4933884;28;20781;-75
2024/01/22 00:38:55;;;;;;;12.60;5.55;;;;;;;4.04;100.00;100772.31;4937227;28;20032;-73
2024/01/22 00:41:21;;;;;;;10.18;5.50;;;;;;;4.02;100.00;100756.66;4905349;29;20131;-74
2024/01/22 00:43:47;;;;;;;10.90;5.60;;;;;;;4.01;100.00;100743.63;4906990;29;20046;-74
2024/01/22 00:46:12;;;;;;;9.52;5.45;;;;;;;3.96;100.00;100723.09;4927296;29;20035;-74
2024/01/22 00:48:38;;;;;;;9.10;5.07;;;;;;;3.96;100.00;100707.19;4943967;28;20047;-75
2024/01/22 00:51:04;;;;;;;12.13;4.97;;;;;;;3.99;100.00;100688.19;4922661;29;20036;-73
2024/01/22 00:53:31;;;;;;;11.35;6.28;;;;;;;4.01;100.00;100670.22;4912787;29;20048;-73
2024/01/22 00:55:57;;;;;;;11.55;5.55;;;;;;;4.03;100.00;100680.59;4919477;29;20068;-73
2024/01/22 00:58:23;;;;;;;10.63;5.88;;;;;;;4.06;100.00;100669.53;4920671;29;20126;-75
2024/01/22 01:00:48;;;;;;;11.50;5.35;;;;;;;4.08;100.00;100655.03;4936949;28;20066;-73
2024/01/22 01:03:14;;;;;;;12.25;5.50;;;;;;;4.08;100.00;100656.88;4922440;29;20038;-74
2024/01/22 01:05:40;;;;;;;7.82;4.97;;;;;;;4.09;100.00;100646.03;4939424;28;20659;-74
2024/01/22 01:08:06;;;;;;;10.88;4.80;;;;;;;4.10;100.00;100639.69;4921440;29;20042;-74
2024/01/22 01:10:32;;;;;;;11.63;5.50;;;;;;;4.13;100.00;100640.28;4936465;28;20426;-74
2024/01/22 01:12:58;;;;;;;8.68;4.97;;;;;;;4.13;100.00;100672.06;4923444;29;20408;-75
2024/01/22 01:15:24;;;;;;;9.60;5.57;;;;;;;4.13;100.00;100664.13;4921641;29;20043;-74
2024/01/22 01:17:50;;;;;;;9.20;5.07;;;;;;;4.14;100.00;100682.47;4939332;28;20043;-75
2024/01/22 01:20:15;;;;;;;10.65;5.07;;;;;;;4.16;100.00;100674.28;4915692;29;20046;-74
2024/01/22 01:22:41;;;;;;;12.05;5.45;;;;;;;4.21;100.00;100667.25;4924343;29;20564;-73
2024/01/22 01:25:07;;;;;;;10.27;4.25;;;;;;;4.19;100.00;100632.22;4924317;29;20047;-73
2024/01/22 01:27:33;;;;;;;9.30;4.50;;;;;;;4.21;100.00;100605.50;4922338;29;20792;-74
2024/01/22 01:29:59;;;;;;;8.63;4.22;;;;;;;4.24;100.00;100581.16;4924039;29;20035;-74
2024/01/22 01:32:26;;;;;;;7.60;4.25;;;;;;;4.27;100.00;100570.13;4926466;29;20050;-74
2024/01/22 01:34:52;;;;;;;7.85;4.63;;;;;;;4.29;100.00;100573.31;4919132;29;20544;-73
2024/01/22 01:37:18;;;;;;;7.28;4.05;;;;;;;4.28;100.00;100574.38;4905697;29;20692;-74
2024/01/22 01:39:43;;;;;;;6.80;4.05;;;;;;;4.29;100.00;100586.59;4909922;29;20374;-74
2024/01/22 01:42:09;;;;;;;11.73;4.75;;;;;;;4.33;100.00;100587.72;4939227;28;20685;-75
2024/01/22 01:44:38;;;;;;;9.27;5.10;;;;;;;4.37;100.00;100624.16;4920087;29;20498;-73
2024/01/22 01:47:04;;;;;;;8.85;4.38;;;;;;;4.41;100.00;100590.03;4924316;29;20048;-74
2024/01/22 01:49:30;;;;;;;12.63;5.75;;;;;;;4.43;100.00;100589.78;4904065;29;20163;-75
2024/01/22 01:51:56;;;;;;;9.43;4.43;;;;;;;4.44;100.00;100571.00;4920067;29;20043;-75
2024/01/22 01:54:24;;;;;;;9.75;4.07;;;;;;;4.50;100.00;100569.25;4921982;29;20046;-75
2024/01/22 01:56:50;;;;;;;7.57;4.32;;;;;;;4.49;100.00;100584.38;4902250;29;20036;-75
2024/01/22 01:59:19;;;;;;;9.70;4.72;;;;;;;4.53;100.00;100561.63;4932597;28;20046;-75
2024/01/22 02:01:45;;;;;;;8.95;4.07;;;;;;;4.53;100.00;100553.69;4925096;29;20035;-75
2024/01/22 02:04:11;;;;;;;6.88;4.03;;;;;;;4.60;100.00;100533.13;4923680;29;20167;-77
2024/01/22 02:06:37;;;;;;;8.38;4.75;;;;;;;4.59;100.00;100534.19;4934568;28;20082;-74
2024/01/22 02:09:02;;;;;;;9.43;4.72;;;;;;;4.56;100.00;100496.72;4907259;29;20138;-76
2024/01/22 02:11:28;;;;;;;9.27;4.80;;;;;;;4.55;100.00;100509.19;4917461;29;20046;-75
2024/01/22 02:13:54;;;;;;;11.30;4.32;;;;;;;4.55;100.00;100509.19;4922702;29;20074;-75
2024/01/22 02:16:20;;;;;;;8.10;4.10;;;;;;;4.55;100.00;100513.69;4924268;29;20119;-76
2024/01/22 02:18:45;;;;;;;8.00;4.18;;;;;;;4.60;100.00;100525.16;4921335;29;20043;-76
2024/01/22 02:21:11;;;;;;;7.50;4.15;;;;;;;4.63;100.00;100508.81;4935928;28;20063;-75
2024/01/22 02:23:37;;;;;;;7.05;4.53;;;;;;;4.63;100.00;100502.69;4921406;29;20042;-75
2024/01/22 02:26:02;;;;;;;9.07;4.25;;;;;;;4.64;100.00;100486.53;4938723;28;20047;-75
2024/01/22 02:28:31;;;;;;;;;;;;;;;4.62;100.00;100463.97;4932969;28;20421;-76
2024/01/22 02:30:57;;;;;;;8.43;4.43;;;;;;;4.65;100.00;100492.66;4920865;29;20349;-77
2024/01/22 02:33:23;;;;;;;8.05;3.92;;;;;;;4.69;100.00;100439.94;4924512;29;20561;-74
2024/01/22 02:35:48;;;;;;;9.45;3.72;;;;;;;4.76;100.00;100448.56;4928860;29;20524;-75
2024/01/22 02:38:16;;;;;;;7.00;3.75;;;;;;;4.79;100.00;100471.94;4921484;29;20553;-78
2024/01/22 02:40:41;;;;;;;8.07;4.10;;;;;;;4.84;100.00;100458.78;4909938;29;20040;-75
2024/01/22 02:43:07;;;;;;;8.73;3.83;;;;;;;4.85;100.00;100445.28;4941839;28;20032;-75
2024/01/22 02:45:33;;;;;;;6.93;3.38;;;;;;;4.84;100.00;100448.16;4927523;29;20688;-75
2024/01/22 02:47:59;;;;;;;9.40;3.90;;;;;;;4.83;100.00;100459.81;4929964;29;20043;-75
2024/01/22 02:50:25;;;;;;;7.50;3.80;;;;;;;4.89;100.00;100488.06;4927121;29;20027;-75
2024/01/22 02:52:51;;;;;;;7.05;3.28;;;;;;;4.88;100.00;100483.81;4940176;28;20048;-74
2024/01/22 02:55:17;;;;;;;8.82;3.50;;;;;;;4.92;100.00;100466.34;4925209;29;20035;-74
2024/01/22 02:57:43;;;;;;;9.32;4.10;;;;;;;4.93;100.00;100484.69;4919230;29;20044;-73
2024/01/22 03:00:10;;;;;;;7.75;3.67;;;;;;;4.99;100.00;100479.47;4925137;29;20043;-74
2024/01/22 03:02:37;;;;;;;10.10;4.05;;;;;;;4.99;100.00;100467.00;4927490;29;20035;-74
2024/01/22 03:05:03;;;;;;;6.53;3.28;;;;;;;4.99;100.00;100451.06;4930095;29;20036;-75
2024/01/22 03:07:28;;;;;;;;;;;;;;;5.06;100.00;100472.97;4936486;28;20414;-75
2024/01/22 03:09:54;;;;;;;8.43;3.10;;;;;;;5.08;100.00;100449.66;4926153;29;20388;-75
2024/01/22 03:12:20;;;;;;;6.95;3.10;;;;;;;5.12;100.00;100461.38;4943154;28;20122;-73
2024/01/22 03:14:45;;;;;;;9.85;3.35;;;;;;;5.17;100.00;100440.25;4925431;29;20075;-75
2024/01/22 03:17:11;;;;;;;7.80;3.53;;;;;;;5.17;100.00;100434.94;4922602;29;20035;-74
2024/01/22 03:19:37;;;;;;;7.68;4.00;;;;;;;5.16;100.00;100420.06;4925672;29;20545;-74
2024/01/22 03:22:03;;;;;;;7.13;3.38;;;;;;;5.12;100.00;100415.47;4942076;28;20035;-74
2024/01/22 03:24:28;;;;;;;7.07;3.15;;;;;;;5.12;100.00;100413.59;4911231;29;20043;-74
2024/01/22 03:26:54;;;;;;;7.07;3.22;;;;;;;5.13;100.00;100409.09;4919326;29;20155;-75
2024/01/22 03:29:19;;;;;;;7.45;3.22;;;;;;;5.13;100.00;100412.56;4942682;28;20126;-75
2024/01/22 03:31:46;;;;;;;7.68;3.63;;;;;;;5.22;100.00;100409.53;4929456;29;20028;-74
2024/01/22 03:34:11;;;;;;;6.95;3.28;;;;;;;5.22;100.00;100412.19;4928314;29;20131;-74
2024/01/22 03:36:37;;;;;;;9.48;3.78;;;;;;;5.24;100.00;100404.75;4909776;29;20545;-74
2024/01/22 03:39:03;;;;;;;5.85;3.17;;;;;;;5.26;100.00;100392.03;4926712;29;20043;-74
2024/01/22 03:41:30;;;;;;;5.97;3.03;;;;;;;5.28;100.00;100389.94;4933683;29;20034;-74
2024/01/22 03:43:55;;;;;;;6.55;3.25;;;;;;;5.29;100.00;100381.75;4898191;29;20035;-73
2024/01/22 03:46:21;;;;;;;5.93;3.20;;;;;;;5.29;100.00;100370.34;4928069;29;20493;-74
2024/01/22 03:48:46;;;;;;;5.38;3.42;;;;;;;5.29;100.00;100373.00;4908490;29;20071;-75
2024/01/22 03:51:12;;;;;;;7.20;3.25;;;;;;;5.32;100.00;100345.94;4893622;29;20132;-73
2024/01/22 03:53:38;;;;;;;6.70;3.33;;;;;;;5.35;100.00;100337.47;4894867;29;20047;-74
2024/01/22 03:56:05;;;;;;;7.20;2.75;;;;;;;5.33;100.00;100331.59;4927274;29;20134;-74
2024/01/22 03:58:32;;;;;;;7.47;3.15;;;;;;;5.37;100.00;100330.88;4939534;28;20055;-75
2024/01/22 04:00:59;;;;;;;3.83;2.55;;;;;;;5.38;100.00;100315.75;4926836;29;20078;-73
2024/01/22 04:03:25;;;;;;;6.90;3.08;;;;;;;5.39;100.00;100317.34;4926222;29;20055;-74
2024/01/22 04:05:51;;;;;;;5.70;2.75;;;;;;;5.41;100.00;100301.97;4933011;29;20032;-74
2024/01/22 04:08:17;;;;;;;7.43;2.70;;;;;;;5.44;100.00;100298.84;4924627;29;20038;-74
2024/01/22 04:10:43;;;;;;;4.80;2.85;;;;;;;5.44;100.00;100289.00;4938355;28;20762;-75
2024/01/22 04:13:08;;;;;;;5.85;2.70;;;;;;;5.40;100.00;100297.72;4927633;29;20036;-74
2024/01/22 04:15:34;;;;;;;8.18;2.75;;;;;;;5.42;100.00;100296.44;4926432;29;20094;-78
2024/01/22 04:18:00;;;;;;;7.68;3.20;;;;;;;5.43;100.00;100273.34;4924950;29;20042;-74
2024/01/22 04:20:26;;;;;;;7.40;3.10;;;;;;;5.40;100.00;100284.44;4924636;29;20047;-74
2024/01/22 04:22:52;;;;;;;7.65;2.90;;;;;;;5.34;100.00;100272.13;4913570;29;20040;-76
2024/01/22 04:25:18;;;;;;;6.65;2.70;;;;;;;5.36;100.00;100248.81;4907947;29;20251;-73
2024/01/22 04:27:44;;;;;;;5.40;3.53;;;;;;;5.36;100.00;100232.88;4926686;29;20098;-77
2024/01/22 04:30:11;;;;;;;8.20;2.53;;;;;;;5.36;100.00;100222.25;4926908;29;20043;-76
2024/01/22 04:32:36;;;;;;;4.32;2.83;;;;;;;5.40;100.00;100223.34;4921358;29;20032;-74
2024/01/22 04:35:04;;;;;;;6.28;2.90;;;;;;;5.42;100.00;100211.44;4922490;29;20508;-74
2024/01/22 04:37:30;;;;;;;4.50;2.40;;;;;;;5.41;100.00;100188.56;4904546;29;20044;-74
2024/01/22 04:40:08;;;;;;;6.55;2.70;;;;;;;5.44;100.00;100182.00;4931308;28;20126;-74
2024/01/22 04:42:34;;;;;;;6.15;2.15;;;;;;;5.47;100.00;100170.84;4925272;29;20035;-74
2024/01/22 04:45:00;;;;;;;4.68;2.40;;;;;;;5.49;100.00;100179.41;4941803;28;20152;-73
2024/01/22 04:47:26;;;;;;;6.47;2.28;;;;;;;5.48;100.00;100156.50;4939208;28;20587;-74
2024/01/22 04:49:51;;;;;;;6.00;2.90;;;;;;;5.48;100.00;100156.50;4907979;29;20456;-75
2024/01/22 04:52:17;;;;;;;4.60;2.40;;;;;;;5.47;100.00;100141.63;4940502;28;20039;-74
2024/01/22 04:54:43;;;;;;;7.05;2.70;;;;;;;5.48;100.00;100136.06;4931442;28;20044;-74
2024/01/22 04:57:08;;;;;;;6.90;2.83;;;;;;;5.54;100.00;100123.66;4920353;29;20031;-75
2024/01/22 04:59:34;;;;;;;7.18;2.72;;;;;;;5.56;100.00;100121.56;4937048;28;20146;-74
2024/01/22 05:01:59;;;;;;;4.32;2.45;;;;;;;5.58;100.00;100129.28;4918782;29;20107;-74
2024/01/22 05:04:25;;;;;;;4.20;2.35;;;;;;;5.58;100.00;100116.00;4924080;29;20394;-74
2024/01/22 05:06:50;;;;;;;5.85;2.60;;;;;;;5.62;100.00;100115.25;4925808;28;20126;-75
2024/01/22 05:09:16;;;;;;;4.63;2.20;;;;;;;5.61;100.00;100120.78;4926634;29;20035;-74
2024/01/22 05:11:42;;;;;;;5.65;2.90;;;;;;;5.62;100.00;100109.94;4928765;29;20035;-75
2024/01/22 05:14:10;;;;;;;3.47;2.13;;;;;;;5.71;100.00;100104.97;4939593;28;20036;-74
2024/01/22 05:16:37;;;;;;;5.78;2.20;;;;;;;5.70;100.00;100098.84;4925780;29;20127;-74
2024/01/22 05:19:03;;;;;;;5.35;2.13;;;;;;;5.71;100.00;100102.31;4937439;28;20085;-75
2024/01/22 05:21:28;;;;;;;5.72;2.17;;;;;;;5.69;100.00;100085.78;4930584;29;20678;-75
2024/01/22 05:23:54;;;;;;;6.70;2.33;;;;;;;5.71;100.00;100073.88;4921381;29;20043;-75
2024/01/22 05:26:20;;;;;;;4.43;2.17;;;;;;;5.72;100.00;100094.06;4942372;28;20493;-74
2024/01/22 05:28:46;;;;;;;5.72;2.60;;;;;;;5.74;100.00;100115.88;4908281;29;20040;-74
2024/01/22 05:31:12;;;;;;;4.82;2.30;;;;;;;5.87;100.00;100092.59;4928991;29;20043;-76
2024/01/22 05:33:38;;;;;;;4.30;2.40;;;;;;;5.86;100.00;100077.69;4927199;29;20043;-77
2024/01/22 05:36:04;;;;;;;4.82;2.10;;;;;;;5.90;100.00;100078.81;4901994;29;20042;-78
2024/01/22 05:38:30;;;;;;;4.55;2.30;;;;;;;5.90;100.00;100078.81;4921321;29;20027;-77
2024/01/22 05:40:55;;;;;;;4.32;2.30;;;;;;;5.90;100.00;100078.81;4937157;28;20044;-77
2024/01/22 05:43:21;;;;;;;5.57;2.03;;;;;;;5.90;100.00;100063.66;4919520;29;20157;-76
2024/01/22 05:45:46;;;;;;;3.83;2.78;;;;;;;5.95;100.00;100045.09;4924672;29;20035;-76
2024/01/22 05:48:12;;;;;;;4.18;2.13;;;;;;;5.96;100.00;100045.91;4940959;28;20067;-76
2024/01/22 05:50:38;;;;;;;5.38;1.98;;;;;;;6.02;100.00;100045.69;4929782;28;20043;-76
2024/01/22 05:53:04;;;;;;;5.35;2.00;;;;;;;6.13;100.00;100046.56;4923028;29;20500;-77
2024/01/22 05:55:30;;;;;;;5.90;2.08;;;;;;;6.13;100.00;100051.88;4926247;29;20036;-77
2024/01/22 05:57:56;;;;;;;4.57;2.33;;;;;;;6.14;100.00;100044.69;4920263;29;20577;-75
2024/01/22 06:00:22;;;;;;;3.92;2.20;;;;;;;6.12;100.00;100028.22;4921281;29;20078;-76
2024/01/22 06:02:47;;;;;;;4.50;2.30;;;;;;;6.06;100.00;100019.41;4923445;28;20031;-76
2024/01/22 06:05:13;;;;;;;5.22;1.98;;;;;;;6.01;100.00;100037.97;4926698;29;20053;-74
2024/01/22 06:07:39;;;;;;;5.03;2.13;;;;;;;5.99;100.00;100053.38;4921059;29;20036;-76
2024/01/22 06:10:06;;;;;;;4.43;2.20;;;;;;;6.00;100.00;100034.50;4938200;28;20031;-73
2024/01/22 06:12:34;;;;;;;3.72;2.40;;;;;;;6.00;100.00;100025.75;4941789;28;20031;-74
2024/01/22 06:15:01;;;;;;;6.35;2.30;;;;;;;5.98;100.00;100041.94;4924820;29;20192;-73
2024/01/22 06:17:31;;;;;;;2.92;1.88;;;;;;;6.01;100.00;100017.50;4938898;28;20042;-76
2024/01/22 06:20:00;;;;;;;6.18;2.45;;;;;;;6.10;100.00;100031.13;4925324;29;20532;-73
2024/01/22 06:22:26;;;;;;;5.60;2.00;;;;;;;6.08;100.00;100025.25;4939710;28;20031;-76
2024/01/22 06:24:52;;;;;;;;;;;;;;;6.16;100.00;100013.31;4924991;29;20046;-76
2024/01/22 06:27:17;;;;;;;2.70;1.85;;;;;;;6.18;100.00;100025.31;4939055;28;19923;-75
2024/01/22 06:29:43;;;;;;;4.30;1.92;;;;;;;6.24;100.00;100021.63;4909816;29;20036;-73
2024/01/22 06:32:08;;;;;;;3.45;2.20;;;;;;;6.20;100.00;100017.88;4922562;29;20028;-75
2024/01/22 06:34:35;;;;;;;4.57;2.20;;;;;;;6.23;100.00;100020.03;4924856;29;20167;-74
2024/01/22 06:37:04;;;;;;;4.05;1.88;;;;;;;6.26;100.00;100003.56;4935659;28;20717;-73
2024/01/22 06:39:29;;;;;;;5.30;1.90;;;;;;;6.31;100.00;100013.44;4917406;29;20179;-74
2024/01/22 06:41:55;;;;;;;2.80;1.90;;;;;;;6.31;100.00;99996.66;4925351;29;20115;-73
2024/01/22 06:44:21;;;;;;;3.63;1.70;;;;;;;6.39;100.00;100006.81;4939716;28;20044;-75
2024/01/22 06:46:47;;;;;;;4.50;2.33;;;;;;;6.44;100.00;100012.16;4919532;29;20513;-74
2024/01/22 06:49:12;;;;;;;4.50;1.67;;;;;;;6.60;100.00;100003.16;4922759;29;20499;-74
2024/01/22 06:51:38;;;;;;;4.82;1.73;;;;;;;6.72;100.00;99998.41;4906859;29;20580;-73
2024/01/22 06:54:04;;;;;;;5.82;1.85;;;;;;;6.77;100.00;100009.09;4922450;29;20051;-74
2024/01/22 06:56:29;;;;;;;3.63;1.80;;;;;;;6.70;100.00;99997.84;4922843;29;20098;-74
2024/01/22 06:58:56;;;;;;;2.75;1.95;;;;;;;6.71;100.00;100004.81;4905493;29;20031;-74
2024/01/22 07:01:21;;;;;;;6.28;1.80;;;;;;;6.74;100.00;99988.31;4919909;29;20564;-75
2024/01/22 07:03:47;;;;;;;2.90;1.65;;;;;;;6.83;100.00;99992.03;4918070;29;20073;-74
2024/01/22 07:06:12;;;;;;;2.50;1.23;;;;;;;7.02;100.00;100007.53;4908596;29;20052;-74
2024/01/22 07:08:38;;;;;;;3.95;1.48;;;;;;;7.07;100.00;100007.53;4936904;28;20059;-74
2024/01/22 07:11:05;;;;;;;3.20;1.33;;;;;;;7.16;100.00;100016.59;4923590;29;20793;-74
2024/01/22 07:13:32;;;;;;;2.63;1.60;;;;;;;7.21;100.00;99991.84;4939696;28;20036;-74
2024/01/22 07:15:58;;;;;;;2.78;1.50;;;;;;;7.44;100.00;99987.84;4922616;29;20055;-74
2024/01/22 07:18:24;;;;;;;2.25;1.33;;;;;;;7.58;100.00;99989.69;4923853;29;20042;-74
2024/01/22 07:20:49;;;;;;;2.67;1.33;;;;;;;7.77;100.00;99987.28;4917131;29;20043;-74
2024/01/22 07:23:15;;;;;;;2.22;1.10;;;;;;;7.84;100.00;99971.81;4923831;29;20578;-74
2024/01/22 07:25:41;;;;;;;2.47;1.20;;;;;;;8.07;100.00;99951.78;4925040;29;20158;-73
2024/01/22 07:28:07;;;;;;;4.03;1.08;;;;;;;8.33;100.00;99970.31;4925832;29;20458;-73
2024/01/22 07:30:32;;;;;;;1.73;0.90;;;;;;;8.35;100.00;99963.69;4934939;28;20110;-75
2024/01/22 07:33:03;;;;;;;1.58;1.20;;;;;;;8.41;100.00;99962.59;4928594;29;20379;-73
2024/01/22 07:35:29;;;;;;;1.15;0.73;;;;;;;8.52;100.00;99946.53;4929167;29;20078;-73
2024/01/22 07:37:55;;;;;;;;;;;;;;;8.58;100.00;99961.44;4938666;28;20405;-77
2024/01/22 07:40:20;;;;;;;1.55;0.80;;;;;;;8.62;100.00;99965.19;4927329;29;19922;-76
2024/01/22 07:42:46;;;;;;;1.38;0.80;;;;;;;8.59;100.00;99968.38;4922228;29;20040;-77
2024/01/22 07:45:12;;;;;;;2.08;0.80;;;;;;;8.62;100.00;99955.28;4941921;28;20387;-75
2024/01/22 07:47:42;;;;;;;3.08;0.90;;;;;;;8.61;100.00;99971.59;4918427;29;20036;-75
2024/01/22 07:50:10;;;;;;;2.17;1.17;;;;;;;8.48;100.00;99978.31;4934532;28;20046;-76
2024/01/22 07:52:37;;;;;;;3.05;1.33;;;;;;;8.42;100.00;99985.53;4912111;29;20485;-76
2024/01/22 07:55:05;;;;;;;2.30;1.20;;;;;;;8.43;100.00;99981.78;4924981;29;20035;-76
2024/01/22 07:57:31;;;;;;;1.55;0.80;;;;;;;8.44;100.00;99967.38;5026680;23;20055;-79
2024/01/22 07:59:57;;;;;;;1.50;1.10;;;;;;;8.41;100.00;99967.94;4908180;29;20043;-80
2024/01/22 08:02:23;;;;;;;2.58;1.20;;;;;;;8.46;100.00;99970.56;4908056;29;20031;-79
2024/01/22 08:04:50;;;;;;;2.95;1.27;;;;;;;8.40;100.00;99982.34;4914703;29;20036;-80
2024/01/22 08:07:22;;;;;;;1.40;0.90;;;;;;;8.39;100.00;99975.41;4924070;29;20493;-82
2024/01/22 08:09:48;;;;;;;1.70;1.15;;;;;;;8.38;100.00;99981.81;4914126;29;20047;-81
2024/01/22 08:12:14;;;;;;;1.92;1.20;;;;;;;8.41;100.00;99983.94;4923400;29;20382;-82
2024/01/22 08:14:40;;;;;;;;;;;;;;;8.38;100.00;99994.34;4927618;29;20039;-78
2024/01/22 08:17:06;;;;;;;1.92;1.15;;;;;;;8.31;100.00;99989.28;4911892;29;19919;-81
2024/01/22 08:19:34;;;;;;;3.15;1.10;;;;;;;8.42;100.00;99961.53;4914106;29;20047;-81
2024/01/22 08:22:01;;;;;;;2.50;1.30;;;;;;;8.41;100.00;99978.63;4911388;29;20417;-75
2024/01/22 08:24:29;;;;;;;2.22;1.13;;;;;;;8.35;100.00;99982.38;4929249;29;20040;-78
2024/01/22 08:26:56;;;;;;;2.75;1.52;;;;;;;8.35;100.00;99974.38;4913796;29;20092;-78
2024/01/22 08:29:21;;;;;;;2.75;1.40;;;;;;;8.33;100.00;99970.31;4910272;29;20447;-80
2024/01/22 08:31:47;;;;;;;1.98;1.45;;;;;;;8.37;100.00;99968.75;4926395;29;20716;-80
2024/01/22 08:34:13;;;;;;;1.98;1.55;;;;;;;8.36;100.00;99970.63;4913842;29;20581;-80
2024/01/22 08:36:39;;;;;;;2.22;1.40;;;;;;;8.40;100.00;99977.03;4921513;29;20028;-80
2024/01/22 08:39:05;;;;;;;3.15;1.55;;;;;;;8.52;100.00;99976.69;4929741;29;20067;-78
2024/01/22 08:41:31;;;;;;;3.05;1.42;;;;;;;8.46;100.00;99972.44;4923284;29;20063;-79
2024/01/22 08:44:02;;;;;;;2.38;1.70;;;;;;;8.55;100.00;99968.13;4928529;29;20052;-79
2024/01/22 08:46:28;;;;;;;2.50;1.42;;;;;;;8.62;100.00;99959.84;4929006;29;20035;-80
2024/01/22 08:48:55;;;;;;;2.05;1.40;;;;;;;8.65;100.00;99956.59;4929864;29;20035;-81
2024/01/22 08:51:22;;;;;;;2.40;1.60;;;;;;;8.63;100.00;99956.09;4924562;29;20048;-80
2024/01/22 08:53:49;;;;;;;4.93;1.67;;;;;;;8.71;100.00;99960.84;4923092;29;20391;-79
2024/01/22 08:56:16;;;;;;;3.80;1.35;;;;;;;8.71;100.00;99960.84;4913468;29;20039;-81
2024/01/22 08:58:42;;;;;;;3.65;1.55;;;;;;;8.71;100.00;99950.16;4910579;29;20060;-79
2024/01/22 09:01:08;;;;;;;3.03;1.83;;;;;;;8.68;100.00;99966.75;4907920;29;20046;-77
2024/01/22 09:03:34;;;;;;;8.38;1.88;;;;;;;8.71;100.00;99976.84;4907294;29;20401;-81
2024/01/22 09:06:00;;;;;;;2.80;1.70;;;;;;;8.73;100.00;99950.69;4926351;29;20040;-79
2024/01/22 09:08:28;;;;;;;3.42;1.50;;;;;;;8.70;100.00;99960.03;4927820;29;20744;-78
2024/01/22 09:10:53;;;;;;;4.25;1.63;;;;;;;8.76;100.00;99974.16;4931339;29;20042;-79
2024/01/22 09:13:20;;;;;;;4.78;1.70;;;;;;;8.79;100.00;99964.78;4915273;29;20035;-79
2024/01/22 09:15:46;;;;;;;1.83;1.23;;;;;;;8.82;100.00;99951.72;4916404;29;20065;-78
2024/01/22 09:18:14;;;;;;;2.63;1.52;;;;;;;8.86;100.00;99968.75;4933191;29;20038;-79
2024/01/22 09:20:42;;;;;;;2.35;1.52;;;;;;;8.89;100.00;99957.53;4934526;29;20058;-80
2024/01/22 09:23:07;;;;;;;5.00;1.85;;;;;;;8.89;100.00;99954.88;4932324;29;20038;-79
2024/01/22 09:25:33;;;;;;;3.90;1.70;;;;;;;8.90;100.00;99964.47;4913155;29;20036;-79
2024/01/22 09:27:59;;;;;;;2.67;1.83;;;;;;;8.93;100.00;99973.78;4912638;29;20334;-79
2024/01/22 09:30:24;;;;;;;2.55;1.60;;;;;;;8.94;100.00;99965.53;4919306;29;20040;-80
2024/01/22 09:32:52;;;;;;;3.53;1.58;;;;;;;9.02;100.00;99959.59;4926420;29;20050;-79
2024/01/22 09:35:20;;;;;;;2.35;1.88;;;;;;;8.99;100.00;99957.44;4925531;29;20032;-78
2024/01/22 09:37:45;;;;;;;3.33;1.80;;;;;;;9.05;100.00;99955.53;4898263;29;20043;-79
2024/01/22 09:40:11;;;;;;;3.88;1.63;;;;;;;9.09;100.00;99971.84;4890563;29;20852;-79
2024/01/22 09:42:39;;;;;;;5.22;2.10;;;;;;;9.03;100.00;99963.84;4910414;29;20035;-79
2024/01/22 09:45:08;;;;;;;4.32;1.92;;;;;;;9.01;100.00;99958.00;4926406;29;20512;-77
2024/01/22 09:47:37;;;;;;;5.10;2.20;;;;;;;9.06;100.00;99973.16;4911715;29;20071;-79
2024/01/22 09:50:04;;;;;;;7.35;2.20;;;;;;;9.08;100.00;99960.34;4897053;29;20055;-77
2024/01/22 09:52:34;;;;;;;5.00;1.70;;;;;;;9.18;100.00;99970.16;4926543;29;20079;-80
2024/01/22 09:55:00;;;;;;;3.00;1.73;;;;;;;9.16;100.00;99965.09;4925082;29;20127;-78
2024/01/22 09:57:27;;;;;;;4.38;2.20;;;;;;;9.17;100.00;99968.56;4926478;29;20039;-78
2024/01/22 09:59:54;;;;;;;3.20;2.00;;;;;;;9.14;100.00;99969.91;4910295;29;20040;-80
2024/01/22 10:02:20;;;;;;;3.75;1.92;;;;;;;9.04;100.00;99961.97;4906797;29;20035;-79
2024/01/22 10:04:46;;;;;;;3.53;2.20;;;;;;;8.95;100.00;99964.44;4906351;29;20042;-76
2024/01/22 10:07:14;;;;;;;3.60;2.45;;;;;;;8.90;100.00;99985.81;4924199;29;20513;-79
2024/01/22 10:09:41;;;;;;;3.30;2.10;;;;;;;8.88;100.00;99990.66;4921340;29;20087;-79
2024/01/22 10:12:08;;;;;;;3.75;2.40;;;;;;;8.87;100.00;99989.03;4925245;29;20073;-79
2024/01/22 10:14:45;;;;;;;3.83;2.42;;;;;;;8.90;100.00;100007.19;4924835;29;20054;-80
2024/01/22 10:17:17;;;;;;;4.80;2.33;;;;;;;8.90;100.00;99996.50;4893399;29;20043;-80
2024/01/22 10:19:48;;;;;;;5.57;2.17;;;;;;;8.90;100.00;99971.69;4923592;29;20405;-75
2024/01/22 10:22:21;;;;;;;4.78;2.80;;;;;;;8.93;100.00;99987.13;4924366;29;20028;-76
2024/01/22 10:24:58;;;;;;;5.20;1.95;;;;;;;8.89;100.00;99994.91;4940772;28;20031;-75
2024/01/22 10:27:25;;;;;;;3.42;2.00;;;;;;;8.84;100.00;99994.94;4925893;29;20042;-76
2024/01/22 10:29:50;;;;;;;2.60;2.03;;;;;;;8.88;100.00;99987.97;4925196;29;20036;-78
2024/01/22 10:32:22;;;;;;;2.17;1.90;;;;;;;8.87;100.00;99989.03;4924907;29;20059;-78
2024/01/22 10:34:53;;;;;;;4.72;1.95;;;;;;;8.85;100.00;99993.88;4910167;29;20043;-78
2024/01/22 10:37:19;;;;;;;4.25;1.88;;;;;;;8.84;100.00;99975.47;4908348;29;20040;-78
2024/01/22 10:39:58;;;;;;;3.50;1.92;;;;;;;8.85;100.00;99988.53;4922739;29;20044;-76
2024/01/22 10:42:25;;;;;;;4.10;2.30;;;;;;;8.87;100.00;99991.72;4910487;29;20594;-75
2024/01/22 10:44:53;;;;;;;5.00;2.45;;;;;;;8.90;100.00;100006.41;4908312;29;20025;-76
2024/01/22 10:47:21;;;;;;;4.22;2.28;;;;;;;8.90;100.00;100009.84;4906809;29;20047;-77
2024/01/22 10:49:51;;;;;;;3.65;2.08;;;;;;;8.91;100.00;100019.47;4903354;29;20151;-75
2024/01/22 10:52:18;;;;;;;3.50;2.55;;;;;;;8.91;100.00;100030.16;4920755;29;20038;-74
2024/01/22 10:54:44;;;;;;;5.32;2.50;;;;;;;8.89;100.00;100051.00;4926045;29;20036;-74
2024/01/22 10:57:24;;;;;;;2.92;2.20;;;;;;;8.88;100.00;100073.44;4908311;29;20555;-73
2024/01/22 10:59:52;;;;;;;4.43;2.45;;;;;;;8.87;100.00;100077.16;4908271;29;20521;-73
2024/01/22 11:02:22;;;;;;;5.88;2.80;;;;;;;8.87;100.00;100077.16;4904194;29;20047;-74
2024/01/22 11:04:51;;;;;;;5.28;2.17;;;;;;;8.83;100.00;100061.97;4921700;29;20033;-75
2024/01/22 11:07:23;;;;;;;6.90;2.17;;;;;;;8.76;100.00;100104.97;4925856;29;20442;-75
2024/01/22 11:09:50;;;;;;;;;;;;;;;8.71;100.00;100091.66;4923078;29;20670;-73
2024/01/22 11:12:21;;;;;;;8.93;2.42;;;;;;;8.63;100.00;100076.19;4923788;29;19915;-74
2024/01/22 11:14:47;;;;;;;7.60;1.70;;;;;;;8.54;100.00;100093.84;4928426;29;20428;-73
2024/01/22 11:17:14;;;;;;;;;;;;;;;8.48;100.00;100096.53;4910352;29;20046;-73
2024/01/22 11:19:40;;;;;;;9.75;1.90;;;;;;;8.38;100.00;100085.06;4918755;29;20420;-73
2024/01/22 11:22:19;;;;;;;11.50;2.20;;;;;;;8.35;100.00;100106.94;4929868;29;20138;-72
2024/01/22 11:25:02;;;;;;;10.60;1.75;;;;;;;8.29;100.00;100100.81;4931789;29;20397;-73
2024/01/22 11:27:39;;;;;;;10.15;1.80;;;;;;;8.26;100.00;100092.53;4928208;29;20039;-73